الصفحة الرئيسية
METAR-TAF:

METAR-TAF

مطار :

جنيف, سويسرا

مطار جنيف الدولي

دائرة عرض: 46-15N, خط طول: 006-08E, ارتفاع: 420 متر

مراقبة الطقس الحالي

تاريخ ووقت الإصدار 43 دقيقة قبل الساعة 21:20UTC
ريح 3 عقدة من الشمال
درجة الحرارة 3°درجة مئوية
الرطوبة 70%
ضغط 1021 hPa
الرؤية 10 كم أو أكثر
ملبد بالغيوم على ارتفاع 2400 قدم

METAR: LSGG 182120Z 01003KT 9999 OVC024 03/M02 Q1021 NOSIG

زمن: 23:03 (22:03 UTC)

توقعات

تاريخ ووقت الإصدار 1ساعة و 38 دقيقة قبل الساعة 20:25UTC
التوقعات صالحة من18 الساعة 21 UTC إلى 20 الساعة 03 UTC
ريح 5 عقدة من الشمال الشرقي
الرؤية 10 كم أو أكثر
ملبد بالغيوم على ارتفاع 2500 قدم

TAF: LSGG 182025Z 1821/2003 05005KT 9999 OVC025 TX05/1915Z TNM01/1906Z

أرصاد الطقس والتوقعات من أكثر من 4000 مطار (تقارير الطقس للمطار METAR والتنبؤ بالطقس بالمطارTAF).

المحطات المتاحة هي النقط الصفراء والحمراء على الخريطة.

حرك المؤشر فوق النقطة لمعرفة اسم المحطة.

ثم انقر لمعرفة أرصاد وتوقعات الطقس.

لتغيير الخارطة: اضغط على الأزرار الخضراء مع رمز الصليب الأسود للتكبير. على الزر الأخضر مع شرطة للتصغير، أو على الأسهم الخضراء للخرائط المجاورة.


METAR-TAF: